Time;durP1;ratioP1;P1;durP2;ratioP2;P2;SDS_P1;SDS_P2;PMS_P1;PMS_P2;Temp;Humidity;BMP_temperature;BMP_pressure;BME280_temperature;BME280_humidity;BME280_pressure;Samples;Min_cycle;Max_cycle;Signal;HPM_P1;HPM_P2
2022/04/14 00:01:01;;;;;;;;;;;13.80;87.00;;;;;;5030462;28;19956;-80
2022/04/14 00:03:26;;;;;;;;;;;13.80;86.90;;;;;;5029128;28;19992;-80
2022/04/14 00:05:52;;;;;;;;;;;13.80;87.30;;;;;;5025189;28;19959;-80
2022/04/14 00:08:17;;;;;;;;;;;13.70;87.60;;;;;;5030491;28;19914;-81
2022/04/14 00:10:43;;;;;;;;;;;13.80;87.70;;;;;;5019115;28;20039;-81
2022/04/14 00:13:08;;;;;;;;;;;13.80;87.80;;;;;;5026028;28;19974;-80
2022/04/14 00:15:34;;;;;;;;;;;13.80;87.80;;;;;;5034720;28;19925;-80
2022/04/14 00:17:59;;;;;;;;;;;13.80;87.90;;;;;;5035904;28;19932;-79
2022/04/14 00:20:25;;;;;;;;;;;13.90;87.90;;;;;;5026253;28;19987;-79
2022/04/14 00:22:50;;;;;;;;;;;13.90;87.90;;;;;;5026865;28;20356;-79
2022/04/14 00:25:16;;;;;;;;;;;13.90;87.70;;;;;;5030413;28;19995;-80
2022/04/14 00:27:41;;;;;;;;;;;14.00;87.50;;;;;;5036491;28;20054;-79
2022/04/14 00:30:07;;;;;;;;;;;13.90;87.50;;;;;;5037994;28;19921;-79
2022/04/14 00:32:32;;;;;;;;;;;13.80;87.70;;;;;;5032528;28;19943;-79
2022/04/14 00:34:58;;;;;;;;;;;13.90;87.50;;;;;;5035332;28;19917;-79
2022/04/14 00:37:23;;;;;;;;;;;13.70;87.40;;;;;;5038891;28;19999;-79
2022/04/14 00:39:50;;;;;;;;;;;13.60;87.10;;;;;;5028119;28;19917;-80
2022/04/14 00:42:16;;;;;;;;;;;13.70;86.90;;;;;;5020892;28;19913;-79
2022/04/14 00:44:42;;;;;;;;;;;13.70;86.80;;;;;;5027939;28;19921;-80
2022/04/14 00:47:07;;;;;;;;;;;13.70;87.00;;;;;;5034935;28;19913;-79
2022/04/14 00:49:33;;;;;;;;;;;13.60;87.30;;;;;;5034597;28;19921;-80
2022/04/14 00:51:59;;;;;;;;;;;13.60;87.60;;;;;;5030627;28;20009;-80
2022/04/14 00:54:25;;;;;;;;;;;13.60;87.70;;;;;;5032872;28;19921;-79
2022/04/14 00:56:50;;;;;;;;;;;13.50;87.70;;;;;;5029278;28;19913;-79
2022/04/14 00:59:15;;;;;;;;;;;13.60;88.00;;;;;;5028468;28;19967;-80
2022/04/14 01:01:41;;;;;;;;;;;13.60;87.80;;;;;;5018673;28;19913;-80
2022/04/14 01:04:08;;;;;;;;;;;13.60;87.70;;;;;;5021962;28;20008;-80
2022/04/14 01:06:33;;;;;;;;;;;13.60;87.60;;;;;;5034753;28;19917;-80
2022/04/14 01:11:44;;;;;;;;;;;13.60;87.10;;;;;;5020696;28;19988;-80
2022/04/14 01:14:25;;;;;;;;;;;13.50;87.20;;;;;;5027814;28;19918;-79
2022/04/14 01:16:50;;;;;;;;;;;13.30;87.50;;;;;;5035075;28;19917;-79
2022/04/14 01:19:16;;;;;;;;;;;13.40;87.70;;;;;;5039861;28;19913;-78
2022/04/14 01:21:44;;;;;;;;;;;13.40;87.80;;;;;;5020851;28;19913;-80
2022/04/14 01:24:09;;;;;;;;;;;13.40;87.70;;;;;;5023868;28;19917;-80
2022/04/14 01:26:37;;;;;;;;;;;13.30;88.00;;;;;;5025831;28;20342;-79
2022/04/14 01:29:03;;;;;;;;;;;13.40;88.30;;;;;;5033320;28;20396;-79
2022/04/14 01:31:29;;;;;;;;;;;13.50;88.40;;;;;;5038189;28;19972;-80
2022/04/14 01:33:54;;;;;;;;;;;13.50;88.60;;;;;;5040200;28;19913;-80
2022/04/14 01:36:19;;;;;;;;;;;13.50;88.10;;;;;;5030580;28;20330;-79
2022/04/14 01:38:45;;;;;;;;;;;13.50;88.00;;;;;;5039611;28;20013;-80
2022/04/14 01:41:10;;;;;;;;;;;13.50;88.10;;;;;;5020559;28;19996;-80
2022/04/14 01:43:36;;;;;;;;;;;13.40;88.40;;;;;;5019371;28;19913;-79
2022/04/14 01:46:03;;;;;;;;;;;13.50;88.50;;;;;;5033629;28;19944;-80
2022/04/14 01:48:28;;;;;;;;;;;13.40;88.50;;;;;;5031121;28;19959;-79
2022/04/14 01:50:54;;;;;;;;;;;13.50;88.60;;;;;;5019516;28;19914;-80
2022/04/14 01:53:19;;;;;;;;;;;13.50;88.50;;;;;;5020000;28;19917;-80
2022/04/14 01:55:45;;;;;;;;;;;13.50;88.40;;;;;;5025719;28;19984;-80
2022/04/14 01:58:10;;;;;;;;;;;13.40;88.50;;;;;;5035727;28;19924;-80
2022/04/14 02:00:36;;;;;;;;;;;13.50;88.60;;;;;;5023882;28;19920;-80
2022/04/14 02:03:01;;;;;;;;;;;13.50;88.50;;;;;;5034284;28;19920;-80
2022/04/14 02:05:26;;;;;;;;;;;13.50;88.30;;;;;;5034109;28;20664;-81
2022/04/14 02:07:52;;;;;;;;;;;13.50;88.40;;;;;;5022639;28;20597;-78
2022/04/14 02:10:17;;;;;;;;;;;13.50;88.50;;;;;;5031373;28;19913;-79
2022/04/14 02:12:45;;;;;;;;;;;13.50;88.70;;;;;;5031449;28;20005;-79
2022/04/14 02:15:10;;;;;;;;;;;13.50;88.60;;;;;;5040802;28;19928;-80
2022/04/14 02:17:36;;;;;;;;;;;13.50;88.80;;;;;;5042817;28;20297;-80
2022/04/14 02:20:01;;;;;;;;;;;13.40;88.60;;;;;;5034956;28;19914;-79
2022/04/14 02:22:27;;;;;;;;;;;13.30;88.50;;;;;;5029080;28;19913;-79
2022/04/14 02:24:52;;;;;;;;;;;13.20;88.30;;;;;;5030779;28;19937;-80
2022/04/14 02:27:18;;;;;;;;;;;13.20;88.50;;;;;;5028936;28;19948;-80
2022/04/14 02:29:43;;;;;;;;;;;13.20;88.60;;;;;;5033317;28;19913;-79
2022/04/14 02:32:09;;;;;;;;;;;13.30;88.70;;;;;;5026807;28;19917;-79
2022/04/14 02:34:34;;;;;;;;;;;13.40;88.80;;;;;;5030389;28;19952;-78
2022/04/14 02:37:00;;;;;;;;;;;13.30;89.10;;;;;;5037694;28;19913;-79
2022/04/14 02:39:25;;;;;;;;;;;13.40;89.00;;;;;;5033643;28;19921;-80
2022/04/14 02:41:52;;;;;;;;;;;13.50;89.10;;;;;;5030202;28;20316;-78
2022/04/14 02:44:17;;;;;;;;;;;13.50;88.90;;;;;;5018911;28;19913;-80
2022/04/14 02:46:43;;;;;;;;;;;13.40;89.00;;;;;;5018125;28;19913;-80
2022/04/14 02:49:08;;;;;;;;;;;13.50;88.90;;;;;;5032497;28;19915;-79
2022/04/14 02:51:34;;;;;;;;;;;13.40;89.00;;;;;;5031648;28;19914;-79
2022/04/14 02:53:59;;;;;;;;;;;13.40;88.90;;;;;;5021908;28;19914;-80
2022/04/14 02:56:25;;;;;;;;;;;13.40;88.80;;;;;;5027166;28;20042;-79
2022/04/14 02:58:50;;;;;;;;;;;13.60;88.20;;;;;;5029490;28;19901;-78
2022/04/14 03:01:16;;;;;;;;;;;13.60;88.20;;;;;;5036792;28;19972;-79
2022/04/14 03:03:41;;;;;;;;;;;13.50;88.50;;;;;;5036614;28;20007;-80
2022/04/14 03:06:07;;;;;;;;;;;13.60;88.60;;;;;;5014612;28;19913;-79
2022/04/14 03:08:33;;;;;;;;;;;13.50;88.50;;;;;;5024326;28;20010;-78
2022/04/14 03:10:58;;;;;;;;;;;13.50;88.80;;;;;;5028302;28;19914;-79
2022/04/14 03:13:24;;;;;;;;;;;13.50;88.30;;;;;;5014871;28;19913;-79
2022/04/14 03:15:50;;;;;;;;;;;13.40;87.50;;;;;;5026527;28;20353;-80
2022/04/14 03:18:16;;;;;;;;;;;13.30;88.20;;;;;;5038001;28;20374;-82
2022/04/14 03:20:42;;;;;;;;;;;13.40;88.10;;;;;;5048616;28;19913;-82
2022/04/14 03:23:07;;;;;;;;;;;13.40;88.10;;;;;;5013201;28;19994;-82
2022/04/14 03:25:33;;;;;;;;;;;13.30;88.70;;;;;;5022620;28;19914;-79
2022/04/14 03:27:58;;;;;;;;;;;13.40;88.80;;;;;;5017460;28;19928;-79
2022/04/14 03:30:24;;;;;;;;;;;13.30;88.80;;;;;;5015402;28;19917;-79
2022/04/14 03:32:49;;;;;;;;;;;13.20;89.00;;;;;;5024839;28;20051;-78
2022/04/14 03:35:15;;;;;;;;;;;13.20;89.10;;;;;;5035775;28;20350;-78
2022/04/14 03:37:41;;;;;;;;;;;13.20;89.30;;;;;;5021364;28;19914;-79
2022/04/14 03:40:07;;;;;;;;;;;13.20;89.40;;;;;;5026976;28;19991;-78
2022/04/14 03:42:33;;;;;;;;;;;13.20;89.20;;;;;;5027412;28;20243;-80
2022/04/14 03:44:59;;;;;;;;;;;13.20;89.30;;;;;;5032178;28;20301;-79
2022/04/14 03:47:27;;;;;;;;;;;13.10;89.50;;;;;;5028717;28;19945;-79
2022/04/14 03:49:53;;;;;;;;;;;13.30;89.60;;;;;;5021217;28;19964;-80
2022/04/14 03:52:18;;;;;;;;;;;13.30;89.40;;;;;;5022828;28;20385;-79
2022/04/14 03:54:44;;;;;;;;;;;13.30;89.00;;;;;;5029850;28;19928;-81
2022/04/14 03:57:10;;;;;;;;;;;13.30;89.10;;;;;;5029927;28;19971;-81
2022/04/14 03:59:36;;;;;;;;;;;13.40;88.70;;;;;;5028525;28;19913;-81
2022/04/14 04:02:01;;;;;;;;;;;13.30;88.90;;;;;;5025255;28;19920;-80
2022/04/14 04:04:27;;;;;;;;;;;13.30;88.90;;;;;;5036281;28;19928;-79
2022/04/14 04:06:52;;;;;;;;;;;13.30;89.10;;;;;;5027660;28;19913;-80
2022/04/14 04:09:18;;;;;;;;;;;13.20;89.10;;;;;;5032962;28;19913;-82
2022/04/14 04:11:43;;;;;;;;;;;13.30;89.20;;;;;;5043271;28;19920;-79
2022/04/14 04:14:10;;;;;;;;;;;13.30;89.20;;;;;;5041308;28;19917;-78
2022/04/14 04:16:35;;;;;;;;;;;13.30;89.10;;;;;;5030621;28;19921;-80
2022/04/14 04:19:01;;;;;;;;;;;13.40;88.80;;;;;;5028031;28;19952;-80
2022/04/14 04:21:41;;;;;;;;;;;13.20;88.90;;;;;;5024802;28;19923;-80
2022/04/14 04:24:07;;;;;;;;;;;13.30;88.80;;;;;;5042846;28;19920;-79
2022/04/14 04:26:32;;;;;;;;;;;13.30;88.80;;;;;;5024384;28;19913;-79
2022/04/14 04:28:58;;;;;;;;;;;13.30;88.60;;;;;;5029782;28;20017;-79
2022/04/14 04:31:23;;;;;;;;;;;13.30;88.60;;;;;;5027854;28;19923;-80
2022/04/14 04:33:51;;;;;;;;;;;13.10;88.70;;;;;;5027123;28;20016;-79
2022/04/14 04:36:19;;;;;;;;;;;13.10;88.90;;;;;;5025431;28;20001;-78
2022/04/14 04:38:45;;;;;;;;;;;13.10;89.10;;;;;;5033484;28;20004;-79
2022/04/14 04:41:11;;;;;;;;;;;13.10;89.10;;;;;;5029407;28;19964;-80
2022/04/14 04:43:36;;;;;;;;;;;13.10;89.20;;;;;;5028678;28;19917;-79
2022/04/14 04:46:02;;;;;;;;;;;13.10;89.20;;;;;;5026329;28;19921;-81
2022/04/14 04:48:27;;;;;;;;;;;13.10;89.30;;;;;;5019514;28;19936;-81
2022/04/14 04:50:53;;;;;;;;;;;13.00;89.40;;;;;;5030033;28;20000;-82
2022/04/14 04:53:19;;;;;;;;;;;13.00;89.50;;;;;;5023977;28;19964;-82
2022/04/14 04:55:44;;;;;;;;;;;13.00;89.20;;;;;;5018618;28;19917;-84
2022/04/14 04:58:09;;;;;;;;;;;13.00;89.60;;;;;;5014468;28;19991;-81
2022/04/14 05:00:35;;;;;;;;;;;13.10;89.60;;;;;;5013819;28;19917;-81
2022/04/14 05:03:01;;;;;;;;;;;13.10;89.40;;;;;;5019889;28;19971;-83
2022/04/14 05:05:26;;;;;;;;;;;13.10;89.20;;;;;;5030211;28;20008;-81
2022/04/14 05:07:52;;;;;;;;;;;13.10;89.40;;;;;;5024768;28;19956;-82
2022/04/14 05:10:17;;;;;;;;;;;13.10;89.30;;;;;;5032541;28;19983;-83
2022/04/14 05:12:43;;;;;;;;;;;13.10;89.40;;;;;;5018988;28;19987;-85
2022/04/14 05:15:08;;;;;;;;;;;13.10;89.50;;;;;;5021728;28;19917;-84
2022/04/14 05:17:34;;;;;;;;;;;13.10;89.40;;;;;;5020963;28;20015;-83
2022/04/14 05:19:59;;;;;;;;;;;13.10;89.50;;;;;;5029030;28;19917;-82
2022/04/14 05:22:25;;;;;;;;;;;13.10;89.50;;;;;;5025282;28;19917;-81
2022/04/14 05:24:50;;;;;;;;;;;13.10;89.60;;;;;;5015176;28;20420;-82
2022/04/14 05:27:16;;;;;;;;;;;13.10;89.40;;;;;;5014504;28;19914;-81
2022/04/14 05:29:41;;;;;;;;;;;13.10;89.40;;;;;;5025129;28;19913;-81
2022/04/14 05:32:07;;;;;;;;;;;13.10;89.30;;;;;;5026030;28;19913;-81
2022/04/14 05:34:33;;;;;;;;;;;13.10;89.20;;;;;;5022948;28;19933;-80
2022/04/14 05:36:58;;;;;;;;;;;13.20;89.30;;;;;;5025195;28;19924;-81
2022/04/14 05:39:24;;;;;;;;;;;13.40;88.50;;;;;;5021477;28;19924;-82
2022/04/14 05:41:49;;;;;;;;;;;13.40;88.20;;;;;;5012928;28;19917;-81
2022/04/14 05:44:16;;;;;;;;;;;13.30;88.60;;;;;;5017931;28;20023;-80
2022/04/14 05:46:42;;;;;;;;;;;13.30;88.80;;;;;;5023768;28;20333;-81
2022/04/14 05:49:07;;;;;;;;;;;13.30;88.80;;;;;;5027013;28;19909;-80
2022/04/14 05:51:33;;;;;;;;;;;13.30;88.80;;;;;;5030131;28;19956;-81
2022/04/14 05:53:58;;;;;;;;;;;13.30;88.60;;;;;;5023883;28;19973;-80
2022/04/14 05:56:24;;;;;;;;;;;13.30;88.50;;;;;;5016522;28;20459;-84
2022/04/14 05:58:52;;;;;;;;;;;13.30;88.70;;;;;;5017010;28;20007;-89
2022/04/14 06:01:18;;;;;;;;;;;13.30;88.90;;;;;;5017454;28;19913;-81
2022/04/14 06:03:43;;;;;;;;;;;13.30;88.90;;;;;;5008393;28;19978;-80
2022/04/14 06:06:11;;;;;;;;;;;13.30;88.90;;;;;;5021153;28;19918;-79
2022/04/14 06:08:37;;;;;;;;;;;13.40;88.90;;;;;;5046406;28;19913;-80
2022/04/14 06:11:04;;;;;;;;;;;13.50;88.70;;;;;;5031964;28;19967;-81
2022/04/14 06:13:30;;;;;;;;;;;13.50;88.70;;;;;;5023608;28;20398;-79
2022/04/14 06:15:55;;;;;;;;;;;13.50;88.60;;;;;;5026638;28;20336;-82
2022/04/14 06:18:21;;;;;;;;;;;13.80;87.70;;;;;;5030816;28;19917;-81
2022/04/14 06:20:48;;;;;;;;;;;14.00;86.80;;;;;;5021473;28;19914;-82
2022/04/14 06:23:16;;;;;;;;;;;14.00;86.80;;;;;;5030961;28;19928;-81
2022/04/14 06:25:42;;;;;;;;;;;14.00;86.60;;;;;;5027741;28;19956;-82
2022/04/14 06:28:08;;;;;;;;;;;13.90;87.00;;;;;;5024803;28;19913;-81
2022/04/14 06:30:33;;;;;;;;;;;14.00;86.70;;;;;;5037774;28;20332;-82
2022/04/14 06:33:00;;;;;;;;;;;14.00;86.60;;;;;;5033062;28;19912;-81
2022/04/14 06:35:26;;;;;;;;;;;14.00;86.50;;;;;;5034597;28;19917;-82
2022/04/14 06:37:52;;;;;;;;;;;14.10;86.00;;;;;;5041864;28;20404;-83
2022/04/14 06:40:17;;;;;;;;;;;14.20;86.00;;;;;;5041496;28;20369;-84
2022/04/14 06:42:43;;;;;;;;;;;14.10;85.90;;;;;;5034141;28;20003;-84
2022/04/14 06:45:08;;;;;;;;;;;14.10;86.40;;;;;;5028816;28;19921;-83
2022/04/14 06:47:34;;;;;;;;;;;14.10;86.60;;;;;;5021177;28;19921;-82
2022/04/14 06:49:59;;;;;;;;;;;14.10;86.40;;;;;;5031619;28;19989;-81
2022/04/14 06:52:25;;;;;;;;;;;14.10;86.30;;;;;;5032627;28;19920;-82
2022/04/14 06:54:50;;;;;;;;;;;14.20;86.30;;;;;;5018674;28;19928;-82
2022/04/14 06:57:17;;;;;;;;;;;14.30;86.40;;;;;;5021005;28;20124;-82
2022/04/14 06:59:43;;;;;;;;;;;14.40;86.20;;;;;;5028290;28;19932;-82
2022/04/14 07:02:08;;;;;;;;;;;14.60;85.30;;;;;;5036543;28;19912;-83
2022/04/14 07:04:34;;;;;;;;;;;14.80;85.40;;;;;;5019045;28;19921;-82
2022/04/14 07:07:00;;;;;;;;;;;14.90;84.60;;;;;;5026069;28;19913;-82
2022/04/14 07:09:28;;;;;;;;;;;15.00;84.10;;;;;;5032286;28;20001;-80
2022/04/14 07:11:54;;;;;;;;;;;15.00;84.10;;;;;;5024074;28;19932;-82
2022/04/14 07:14:19;;;;;;;;;;;15.10;84.00;;;;;;5016078;28;20011;-81
2022/04/14 07:16:45;;;;;;;;;;;15.10;83.90;;;;;;5021505;28;21357;-81
2022/04/14 07:19:11;;;;;;;;;;;15.10;83.50;;;;;;5037610;28;19920;-82
2022/04/14 07:21:37;;;;;;;;;;;15.20;83.20;;;;;;5016985;28;20592;-81
2022/04/14 07:24:03;;;;;;;;;;;15.30;83.10;;;;;;5027724;28;19913;-82
2022/04/14 07:26:29;;;;;;;;;;;15.30;83.10;;;;;;5015112;28;20503;-82
2022/04/14 07:28:54;;;;;;;;;;;15.30;83.00;;;;;;5024061;28;20228;-82
2022/04/14 07:31:19;;;;;;;;;;;15.30;83.40;;;;;;5025688;28;19924;-82
2022/04/14 07:33:45;;;;;;;;;;;15.20;83.30;;;;;;5015861;28;19953;-82
2022/04/14 07:36:12;;;;;;;;;;;15.00;83.80;;;;;;5028694;28;19913;-83
2022/04/14 07:38:38;;;;;;;;;;;15.00;83.70;;;;;;5034930;28;19913;-82
2022/04/14 07:41:05;;;;;;;;;;;15.00;83.80;;;;;;5034037;28;19916;-85
2022/04/14 07:43:32;;;;;;;;;;;15.00;83.80;;;;;;5029587;28;20266;-85
2022/04/14 07:45:57;;;;;;;;;;;14.90;83.70;;;;;;5033174;28;19910;-84
2022/04/14 07:48:22;;;;;;;;;;;14.90;84.10;;;;;;5027031;28;19914;-85
2022/04/14 07:50:48;;;;;;;;;;;14.90;84.60;;;;;;5032524;28;20382;-83
2022/04/14 07:53:14;;;;;;;;;;;14.70;84.30;;;;;;5030544;28;19928;-83
2022/04/14 07:55:39;;;;;;;;;;;14.80;84.00;;;;;;5026154;28;19920;-85
2022/04/14 07:58:09;;;;;;;;;;;14.70;84.50;;;;;;5025720;28;19909;-85
2022/04/14 08:00:35;;;;;;;;;;;14.60;84.50;;;;;;5030528;28;19960;-84
2022/04/14 08:03:02;;;;;;;;;;;14.60;84.90;;;;;;5042501;28;19972;-85
2022/04/14 08:05:29;;;;;;;;;;;14.50;84.50;;;;;;5037227;28;19920;-85
2022/04/14 08:07:55;;;;;;;;;;;14.50;84.80;;;;;;5042718;28;19955;-83
2022/04/14 08:10:20;;;;;;;;;;;14.50;85.30;;;;;;5037248;28;19925;-81
2022/04/14 08:12:47;;;;;;;;;;;14.40;85.20;;;;;;5024186;28;20397;-84
2022/04/14 08:15:12;;;;;;;;;;;14.50;85.50;;;;;;5032611;28;19918;-83
2022/04/14 08:17:42;;;;;;;;;;;14.60;85.50;;;;;;5024003;28;19923;-83
2022/04/14 08:20:08;;;;;;;;;;;14.60;84.90;;;;;;5039483;28;19920;-84
2022/04/14 08:22:44;;;;;;;;;;;14.70;84.80;;;;;;5039848;28;19927;-85
2022/04/14 08:25:10;;;;;;;;;;;14.90;84.40;;;;;;5018551;28;19929;-86
2022/04/14 08:27:36;;;;;;;;;;;15.00;84.20;;;;;;5030597;28;19928;-81
2022/04/14 08:30:01;;;;;;;;;;;15.10;83.80;;;;;;5025710;28;20421;-84
2022/04/14 08:32:27;;;;;;;;;;;15.20;83.40;;;;;;5028762;28;19921;-84
2022/04/14 08:34:52;;;;;;;;;;;15.10;83.80;;;;;;5032564;28;20234;-83
2022/04/14 08:37:18;;;;;;;;;;;15.20;83.50;;;;;;5017846;28;19914;-83
2022/04/14 08:39:43;;;;;;;;;;;15.20;83.10;;;;;;5013805;28;20072;-84
2022/04/14 08:42:13;;;;;;;;;;;15.20;83.50;;;;;;5022186;28;20137;-84
2022/04/14 08:44:45;;;;;;;;;;;15.30;83.00;;;;;;5027842;28;19928;-83
2022/04/14 08:47:10;;;;;;;;;;;15.40;82.70;;;;;;5027149;28;19920;-85
2022/04/14 08:49:36;;;;;;;;;;;15.60;82.50;;;;;;5032924;28;19916;-84
2022/04/14 08:52:02;;;;;;;;;;;15.70;81.80;;;;;;5027164;28;19920;-84
2022/04/14 08:54:28;;;;;;;;;;;15.70;81.10;;;;;;5030878;28;20008;-85
2022/04/14 08:56:58;;;;;;;;;;;15.80;80.10;;;;;;5029732;28;19940;-86
2022/04/14 08:59:24;;;;;;;;;;;16.00;79.20;;;;;;5031914;28;20434;-83
2022/04/14 09:01:50;;;;;;;;;;;16.20;78.20;;;;;;5036502;28;19949;-83
2022/04/14 09:04:15;;;;;;;;;;;16.40;77.00;;;;;;5025632;28;19963;-83
2022/04/14 09:06:41;;;;;;;;;;;16.50;75.90;;;;;;5033768;28;20011;-84
2022/04/14 09:09:06;;;;;;;;;;;16.70;75.80;;;;;;5019016;28;19921;-83
2022/04/14 09:11:32;;;;;;;;;;;16.80;74.90;;;;;;5030918;28;19963;-85
2022/04/14 09:13:58;;;;;;;;;;;16.90;74.00;;;;;;5028619;28;20029;-84
2022/04/14 09:16:25;;;;;;;;;;;16.90;72.30;;;;;;5040703;28;20030;-83
2022/04/14 09:18:50;;;;;;;;;;;16.60;72.50;;;;;;5031963;28;20459;-84
2022/04/14 09:21:16;;;;;;;;;;;16.60;73.40;;;;;;5021442;28;19913;-80
2022/04/14 09:23:48;;;;;;;;;;;16.50;73.40;;;;;;5023256;28;19931;-85
2022/04/14 09:26:14;;;;;;;;;;;16.50;73.60;;;;;;5027167;28;19945;-86
2022/04/14 09:29:00;;;;;;;;;;;16.40;73.70;;;;;;5023925;28;19917;-84
2022/04/14 09:31:27;;;;;;;;;;;16.40;72.80;;;;;;5023319;28;19928;-85
2022/04/14 09:33:55;;;;;;;;;;;16.30;74.20;;;;;;5032329;28;19913;-86
2022/04/14 09:36:23;;;;;;;;;;;16.40;73.90;;;;;;5038063;28;19964;-83
2022/04/14 09:38:49;;;;;;;;;;;16.50;72.60;;;;;;5034764;28;20378;-81
2022/04/14 09:41:33;;;;;;;;;;;16.50;71.00;;;;;;5022297;28;20005;-80
2022/04/14 09:44:00;;;;;;;;;;;16.50;71.70;;;;;;5026219;28;19975;-82
2022/04/14 09:46:26;;;;;;;;;;;16.70;71.20;;;;;;5025370;28;19997;-82
2022/04/14 09:49:07;;;;;;;;;;;16.90;70.20;;;;;;5031377;28;20047;-82
2022/04/14 09:51:33;;;;;;;;;;;17.20;67.80;;;;;;5021360;28;20373;-82
2022/04/14 09:54:06;;;;;;;;;;;17.30;67.70;;;;;;5015561;28;19971;-81
2022/04/14 09:56:39;;;;;;;;;;;17.30;67.10;;;;;;5022343;28;19971;-81
2022/04/14 09:59:08;;;;;;;;;;;17.20;66.00;;;;;;5016392;28;19914;-81
2022/04/14 10:01:34;;;;;;;;;;;17.20;66.30;;;;;;5026634;28;19917;-82
2022/04/14 10:04:00;;;;;;;;;;;17.40;66.00;;;;;;5025316;28;19920;-82
2022/04/14 10:06:25;;;;;;;;;;;17.50;65.40;;;;;;5025940;28;20310;-81
2022/04/14 10:08:51;;;;;;;;;;;17.70;66.30;;;;;;5026135;28;20416;-83
2022/04/14 10:11:23;;;;;;;;;;;18.00;64.10;;;;;;5019174;28;19921;-82
2022/04/14 10:13:49;;;;;;;;;;;18.00;64.10;;;;;;5024790;28;19918;-80
2022/04/14 10:16:15;;;;;;;;;;;17.80;64.10;;;;;;5020952;28;19948;-80
2022/04/14 10:18:40;;;;;;;;;;;17.70;64.30;;;;;;5038624;28;19935;-80
2022/04/14 10:21:06;;;;;;;;;;;17.70;64.20;;;;;;5030018;28;20366;-80
2022/04/14 10:23:32;;;;;;;;;;;17.70;63.50;;;;;;5030933;28;19988;-80
2022/04/14 10:25:57;;;;;;;;;;;17.70;63.60;;;;;;5023974;28;20004;-81
2022/04/14 10:28:24;;;;;;;;;;;17.80;63.90;;;;;;5026660;28;19944;-82
2022/04/14 10:30:56;;;;;;;;;;;17.90;63.60;;;;;;5022745;28;19917;-82
2022/04/14 10:33:22;;;;;;;;;;;18.00;63.10;;;;;;5017082;28;20390;-83
2022/04/14 10:35:49;;;;;;;;;;;17.80;61.00;;;;;;5014429;28;19917;-83
2022/04/14 10:38:17;;;;;;;;;;;17.70;61.00;;;;;;5018923;28;19913;-82
2022/04/14 10:40:51;;;;;;;;;;;17.70;62.00;;;;;;5027653;28;19928;-82
2022/04/14 10:43:22;;;;;;;;;;;17.50;63.80;;;;;;5030239;28;19972;-84
2022/04/14 10:45:49;;;;;;;;;;;17.40;63.50;;;;;;5026552;28;20333;-82
2022/04/14 10:48:28;;;;;;;;;;;17.40;63.00;;;;;;5026657;28;19982;-84
2022/04/14 10:51:13;;;;;;;;;;;17.60;63.20;;;;;;5020491;28;19913;-82
2022/04/14 10:53:48;;;;;;;;;;;17.80;62.10;;;;;;5021350;28;19917;-82
2022/04/14 10:56:32;;;;;;;;;;;18.00;60.80;;;;;;5025512;28;19921;-82
2022/04/14 10:58:58;;;;;;;;;;;18.10;61.50;;;;;;5029547;28;20211;-80
2022/04/14 11:01:42;;;;;;;;;;;18.10;61.80;;;;;;5016122;28;19932;-82
2022/04/14 11:04:26;;;;;;;;;;;18.10;60.90;;;;;;5027405;28;20008;-80
2022/04/14 11:06:54;;;;;;;;;;;17.90;61.70;;;;;;5034647;28;19913;-80
2022/04/14 11:09:51;;;;;;;;;;;18.10;63.50;;;;;;5026438;28;19921;-80
2022/04/14 11:12:21;;;;;;;;;;;18.10;61.60;;;;;;5015834;28;19928;-82
2022/04/14 11:14:51;;;;;;;;;;;18.10;60.70;;;;;;5020878;28;20019;-81
2022/04/14 11:17:40;;;;;;;;;;;18.20;60.00;;;;;;5023629;28;19928;-84
2022/04/14 11:20:12;;;;;;;;;;;18.30;59.60;;;;;;5023043;28;19913;-85
2022/04/14 11:22:56;;;;;;;;;;;18.20;60.00;;;;;;5023625;28;20345;-83
2022/04/14 11:25:41;;;;;;;;;;;18.20;59.60;;;;;;5022478;28;19917;-83
2022/04/14 11:28:17;;;;;;;;;;;18.10;60.10;;;;;;5018667;28;20000;-84
2022/04/14 11:30:43;;;;;;;;;;;18.00;59.40;;;;;;5014200;28;19913;-80
2022/04/14 11:33:22;;;;;;;;;;;18.00;59.50;;;;;;5019597;28;20362;-83
2022/04/14 11:35:48;;;;;;;;;;;18.00;60.00;;;;;;5022988;28;19917;-81
2022/04/14 11:38:32;;;;;;;;;;;17.90;60.40;;;;;;5021141;28;19939;-83
2022/04/14 11:40:57;;;;;;;;;;;17.70;59.80;;;;;;5016893;28;19913;-82
2022/04/14 11:43:23;;;;;;;;;;;17.60;60.30;;;;;;5028208;28;19977;-80
2022/04/14 11:45:50;;;;;;;;;;;17.80;59.10;;;;;;5029738;28;19913;-83
2022/04/14 11:48:15;;;;;;;;;;;17.70;60.00;;;;;;5021566;28;20604;-84
2022/04/14 11:50:40;;;;;;;;;;;17.70;58.90;;;;;;5022404;28;19913;-81
2022/04/14 11:53:06;;;;;;;;;;;17.50;60.70;;;;;;5022636;28;20392;-82
2022/04/14 11:55:38;;;;;;;;;;;17.60;61.50;;;;;;5026331;28;19917;-87
2022/04/14 11:58:05;;;;;;;;;;;17.60;61.80;;;;;;5021657;28;20043;-84
2022/04/14 12:00:40;;;;;;;;;;;17.60;61.30;;;;;;5036561;28;20408;-83
2022/04/14 12:03:06;;;;;;;;;;;17.70;61.90;;;;;;5026800;28;19921;-84
2022/04/14 12:05:31;;;;;;;;;;;18.00;61.20;;;;;;5030961;28;20389;-82
2022/04/14 12:08:10;;;;;;;;;;;18.30;60.50;;;;;;5032789;28;19927;-83
2022/04/14 12:10:36;;;;;;;;;;;18.60;58.20;;;;;;5038922;28;19920;-82
2022/04/14 12:13:08;;;;;;;;;;;18.80;55.70;;;;;;5036483;28;19913;-83
2022/04/14 12:15:34;;;;;;;;;;;19.10;55.90;;;;;;5031267;28;19925;-81
2022/04/14 12:18:06;;;;;;;;;;;19.10;55.20;;;;;;5028119;28;19928;-82
2022/04/14 12:20:40;;;;;;;;;;;19.00;54.50;;;;;;5033311;28;19913;-81
2022/04/14 12:23:09;;;;;;;;;;;19.00;55.30;;;;;;5020867;28;19925;-82
2022/04/14 12:25:35;;;;;;;;;;;18.90;54.30;;;;;;5016054;28;20400;-80
2022/04/14 12:28:02;;;;;;;;;;;18.80;53.20;;;;;;5026349;28;19948;-78
2022/04/14 12:30:29;;;;;;;;;;;18.60;53.90;;;;;;5018074;28;19993;-81
2022/04/14 12:33:02;;;;;;;;;;;18.70;54.20;;;;;;5017614;28;19914;-82
2022/04/14 12:35:37;;;;;;;;;;;18.80;53.40;;;;;;5033090;28;19925;-83
2022/04/14 12:38:11;;;;;;;;;;;18.70;53.90;;;;;;5025244;28;19921;-84
2022/04/14 12:40:37;;;;;;;;;;;18.60;54.50;;;;;;5033517;28;19919;-80
2022/04/14 12:43:06;;;;;;;;;;;18.60;54.10;;;;;;5021471;28;20012;-81
2022/04/14 12:45:38;;;;;;;;;;;18.50;54.20;;;;;;5033495;28;19909;-81
2022/04/14 12:48:05;;;;;;;;;;;18.60;54.70;;;;;;5029098;28;19913;-81
2022/04/14 12:50:30;;;;;;;;;;;18.60;54.20;;;;;;5033310;28;19917;-80
2022/04/14 12:52:57;;;;;;;;;;;18.60;55.30;;;;;;5029025;28;19921;-81
2022/04/14 12:55:26;;;;;;;;;;;18.70;55.70;;;;;;5031490;28;19928;-83
2022/04/14 12:58:11;;;;;;;;;;;18.50;54.70;;;;;;5029761;28;20258;-83
2022/04/14 13:00:37;;;;;;;;;;;18.40;54.40;;;;;;5014721;28;20047;-83
2022/04/14 13:03:05;;;;;;;;;;;18.30;53.90;;;;;;5026969;28;19913;-80
2022/04/14 13:05:37;;;;;;;;;;;18.30;55.40;;;;;;5039824;28;19913;-81
2022/04/14 13:08:03;;;;;;;;;;;18.40;54.40;;;;;;5028761;28;20327;-81
2022/04/14 13:10:36;;;;;;;;;;;18.50;54.00;;;;;;5011798;28;19929;-79
2022/04/14 13:13:02;;;;;;;;;;;18.60;53.10;;;;;;5026995;28;19913;-80
2022/04/14 13:15:28;;;;;;;;;;;18.70;52.50;;;;;;5020525;28;19924;-81
2022/04/14 13:17:54;;;;;;;;;;;18.90;52.10;;;;;;5028490;28;20557;-82
2022/04/14 13:20:30;;;;;;;;;;;19.00;52.30;;;;;;5024050;28;20558;-81
2022/04/14 13:22:56;;;;;;;;;;;19.10;52.10;;;;;;5026271;28;19928;-80
2022/04/14 13:25:24;;;;;;;;;;;19.00;51.90;;;;;;5024428;28;19913;-79
2022/04/14 13:27:51;;;;;;;;;;;19.00;52.40;;;;;;5014631;28;19918;-80
2022/04/14 13:30:16;;;;;;;;;;;19.00;53.00;;;;;;5025053;28;19948;-79
2022/04/14 13:32:42;;;;;;;;;;;19.10;54.80;;;;;;5034248;28;20253;-80
2022/04/14 13:35:08;;;;;;;;;;;19.20;53.70;;;;;;5037690;28;19913;-80
2022/04/14 13:37:33;;;;;;;;;;;19.50;53.60;;;;;;5039335;28;19917;-81
2022/04/14 13:40:02;;;;;;;;;;;19.60;53.20;;;;;;5039939;28;19928;-78
2022/04/14 13:42:31;;;;;;;;;;;19.80;51.30;;;;;;5027572;28;20686;-78
2022/04/14 13:44:58;;;;;;;;;;;20.00;51.10;;;;;;5026030;28;19913;-78
2022/04/14 13:47:23;;;;;;;;;;;20.10;49.90;;;;;;5030157;28;20451;-78
2022/04/14 13:49:51;;;;;;;;;;;20.20;48.80;;;;;;5026443;28;19917;-81
2022/04/14 13:52:17;;;;;;;;;;;20.10;51.00;;;;;;5022253;28;20131;-79
2022/04/14 13:54:42;;;;;;;;;;;20.00;49.50;;;;;;5028508;28;20389;-80
2022/04/14 13:57:08;;;;;;;;;;;20.00;48.80;;;;;;5020493;28;19932;-80
2022/04/14 13:59:33;;;;;;;;;;;19.80;50.30;;;;;;5013509;28;20011;-80
2022/04/14 14:02:01;;;;;;;;;;;19.80;51.60;;;;;;5020762;28;19913;-80
2022/04/14 14:04:26;;;;;;;;;;;19.70;50.40;;;;;;5025970;28;19931;-82
2022/04/14 14:06:54;;;;;;;;;;;19.80;48.70;;;;;;5025729;28;19913;-79
2022/04/14 14:09:20;;;;;;;;;;;19.70;48.20;;;;;;5032610;28;20017;-78
2022/04/14 14:11:46;;;;;;;;;;;19.60;49.90;;;;;;5029811;28;20036;-79
2022/04/14 14:14:12;;;;;;;;;;;19.50;49.20;;;;;;5027484;28;20381;-81
2022/04/14 14:16:38;;;;;;;;;;;19.50;48.80;;;;;;5017505;28;19924;-81
2022/04/14 14:19:04;;;;;;;;;;;19.60;48.60;;;;;;5021247;28;19940;-81